createdAt,value
2022-09-07T00:00:42.778Z,40.1
2022-09-07T00:01:44.363Z,40.1
2022-09-07T00:02:46.242Z,40.1
2022-09-07T00:03:48.142Z,40.1
2022-09-07T00:04:49.682Z,40.1
2022-09-07T00:05:51.294Z,40.1
2022-09-07T00:06:52.942Z,40.1
2022-09-07T00:07:54.585Z,40.1
2022-09-07T00:08:56.210Z,40.1
2022-09-07T00:09:57.872Z,40.1
2022-09-07T00:10:59.401Z,40.1
2022-09-07T00:12:01.021Z,40.2
2022-09-07T00:13:02.604Z,40.1
2022-09-07T00:14:04.206Z,40.2
2022-09-07T00:15:05.894Z,40.2
2022-09-07T00:16:07.716Z,40.2
2022-09-07T00:17:09.738Z,40.1
2022-09-07T00:18:11.296Z,40.2
2022-09-07T00:19:12.887Z,40.2
2022-09-07T00:20:14.540Z,40.1
2022-09-07T00:21:16.174Z,40.1
2022-09-07T00:22:17.774Z,40.1
2022-09-07T00:23:19.426Z,40.1
2022-09-07T00:24:21.035Z,40.1
2022-09-07T00:25:22.653Z,40.2
2022-09-07T00:26:24.302Z,40.2
2022-09-07T00:27:25.949Z,40.2
2022-09-07T00:28:27.491Z,40.2
2022-09-07T00:29:29.343Z,40.2
2022-09-07T00:30:30.987Z,40.2
2022-09-07T00:31:32.710Z,40.2
2022-09-07T00:32:34.620Z,40.2
2022-09-07T00:33:36.161Z,40.1
2022-09-07T00:34:37.743Z,40.2
2022-09-07T00:35:39.295Z,40.2
2022-09-07T00:36:40.961Z,40.2
2022-09-07T00:37:42.507Z,40.2
2022-09-07T00:38:44.044Z,40.2
2022-09-07T00:39:45.810Z,40.2
2022-09-07T00:40:47.678Z,40.2
2022-09-07T00:41:49.291Z,40.2
2022-09-07T00:42:50.831Z,40.2
2022-09-07T00:43:52.372Z,40.2
2022-09-07T00:44:53.893Z,40.2
2022-09-07T00:45:55.433Z,40.2
2022-09-07T00:46:57.145Z,40.2
2022-09-07T00:47:59.091Z,40.2
2022-09-07T00:49:00.707Z,40.2
2022-09-07T00:50:02.552Z,40.2
2022-09-07T00:51:04.113Z,40.2
2022-09-07T00:52:05.612Z,40.2
2022-09-07T00:53:07.160Z,40.2
2022-09-07T00:54:08.739Z,40.2
2022-09-07T00:55:10.470Z,40.1
2022-09-07T00:56:12.119Z,40.2
2022-09-07T00:57:13.724Z,40.2
2022-09-07T00:58:15.280Z,40.2
2022-09-07T00:59:16.952Z,40.2
2022-09-07T01:00:18.700Z,40.2
2022-09-07T01:01:20.551Z,40.2
2022-09-07T01:02:22.891Z,40.2
2022-09-07T01:03:24.997Z,40.2
2022-09-07T01:04:26.713Z,40.2
2022-09-07T01:05:28.460Z,40.2
2022-09-07T01:06:30.107Z,40.2
2022-09-07T01:07:31.719Z,40.2
2022-09-07T01:08:33.266Z,40.2
2022-09-07T01:09:34.819Z,40.2
2022-09-07T01:10:36.484Z,40.2
2022-09-07T01:11:38.234Z,40.2
2022-09-07T01:12:39.847Z,40.3
2022-09-07T01:13:41.418Z,40.3
2022-09-07T01:14:42.991Z,40.2
2022-09-07T01:15:44.756Z,40.3
2022-09-07T01:16:46.553Z,40.2
2022-09-07T01:17:48.544Z,40.2
2022-09-07T01:18:50.079Z,40.2
2022-09-07T01:19:51.754Z,40.2
2022-09-07T01:20:53.461Z,40.2
2022-09-07T01:21:55.007Z,40.2
2022-09-07T01:22:56.547Z,40.2
2022-09-07T01:23:58.082Z,40.2
2022-09-07T01:24:59.664Z,40.3
2022-09-07T01:26:04.117Z,40.3
2022-09-07T01:27:05.972Z,40.3
2022-09-07T01:28:07.624Z,40.2
2022-09-07T01:29:09.264Z,40.2
2022-09-07T01:30:10.912Z,40.3
2022-09-07T01:31:12.605Z,40.2
2022-09-07T01:32:14.653Z,40.2
2022-09-07T01:33:16.358Z,40.2
2022-09-07T01:34:17.979Z,40.2
2022-09-07T01:35:19.689Z,40.2
2022-09-07T01:36:21.238Z,40.2
2022-09-07T01:37:22.914Z,40.2
2022-09-07T01:38:24.621Z,40.2
2022-09-07T01:39:26.775Z,40.2
2022-09-07T01:40:28.506Z,40.2
2022-09-07T01:41:30.139Z,40.2
2022-09-07T01:42:31.783Z,40.2
2022-09-07T01:43:33.361Z,40.2
2022-09-07T01:44:35.006Z,40.2
2022-09-07T01:45:36.614Z,40.2
2022-09-07T01:46:38.405Z,40.2
2022-09-07T01:47:40.623Z,40.3
2022-09-07T01:48:42.157Z,40.2
2022-09-07T01:49:43.688Z,40.3
2022-09-07T01:50:45.289Z,40.3
2022-09-07T01:51:46.832Z,40.3
2022-09-07T01:52:48.486Z,40.2
2022-09-07T01:53:50.003Z,40.2
2022-09-07T01:54:51.608Z,40.2
2022-09-07T01:55:53.131Z,40.2
2022-09-07T01:56:54.715Z,40.2
2022-09-07T01:57:56.285Z,40.2
2022-09-07T01:58:57.843Z,40.2
2022-09-07T01:59:59.411Z,40.2
2022-09-07T02:01:00.952Z,40.2
2022-09-07T02:02:02.752Z,40.2
2022-09-07T02:03:04.903Z,40.2
2022-09-07T02:04:06.754Z,40.2
2022-09-07T02:05:08.314Z,40.2
2022-09-07T02:06:09.861Z,40.2
2022-09-07T02:07:11.486Z,40.2
2022-09-07T02:08:13.096Z,40.2
2022-09-07T02:09:14.639Z,40.2
2022-09-07T02:10:16.194Z,40.2
2022-09-07T02:11:17.732Z,40.2
2022-09-07T02:12:19.387Z,40.2
2022-09-07T02:13:20.974Z,40.2
2022-09-07T02:14:22.575Z,40.2
2022-09-07T02:15:24.107Z,40.3
2022-09-07T02:16:25.746Z,40.3
2022-09-07T02:17:27.408Z,40.3
2022-09-07T02:18:29.166Z,40.2
2022-09-07T02:19:31.148Z,40.2
2022-09-07T02:20:32.690Z,40.2
2022-09-07T02:21:34.230Z,40.2
2022-09-07T02:22:38.754Z,40.3
2022-09-07T02:23:40.297Z,40.3
2022-09-07T02:24:41.935Z,40.2
2022-09-07T02:25:43.477Z,40.3
2022-09-07T02:26:45.013Z,40.2
2022-09-07T02:27:46.625Z,40.2
2022-09-07T02:28:48.168Z,40.2
2022-09-07T02:29:49.819Z,40.2
2022-09-07T02:30:51.611Z,40.2
2022-09-07T02:31:53.552Z,40.2
2022-09-07T02:32:55.227Z,40.2
2022-09-07T02:33:56.877Z,40.2
2022-09-07T02:34:58.566Z,40.2
2022-09-07T02:36:00.304Z,40.2
2022-09-07T02:37:01.833Z,40.2
2022-09-07T02:38:03.367Z,40.2
2022-09-07T02:39:04.916Z,40.2
2022-09-07T02:40:06.628Z,40.1
2022-09-07T02:41:08.567Z,40.1
2022-09-07T02:42:10.105Z,40.1
2022-09-07T02:43:11.703Z,40.1
2022-09-07T02:44:13.299Z,40.1
2022-09-07T02:45:14.911Z,40.1
2022-09-07T02:46:16.634Z,40.1
2022-09-07T02:47:18.666Z,40.2
2022-09-07T02:48:20.286Z,40.2
2022-09-07T02:49:21.827Z,40.2
2022-09-07T02:50:23.449Z,40.2
2022-09-07T02:51:25.093Z,40.2
2022-09-07T02:52:26.877Z,40.2
2022-09-07T02:53:28.445Z,40.2
2022-09-07T02:54:29.987Z,40.2
2022-09-07T02:55:31.648Z,40.2
2022-09-07T02:56:33.169Z,40.2
2022-09-07T02:57:34.687Z,40.2
2022-09-07T02:58:36.296Z,40.2
2022-09-07T02:59:37.821Z,40.2
2022-09-07T03:00:39.359Z,40.2
2022-09-07T03:01:41.145Z,40.2
2022-09-07T03:02:43.214Z,40.2
2022-09-07T03:03:45.068Z,40.2
2022-09-07T03:04:46.615Z,40.2
2022-09-07T03:05:48.319Z,40.2
2022-09-07T03:06:49.832Z,40.2
2022-09-07T03:07:51.514Z,40.2
2022-09-07T03:08:53.050Z,40.2
2022-09-07T03:09:54.595Z,40.2
2022-09-07T03:10:56.446Z,40.2
2022-09-07T03:11:58.085Z,40.2
2022-09-07T03:12:59.734Z,40.2
2022-09-07T03:14:01.262Z,40.2
2022-09-07T03:15:02.919Z,40.2
2022-09-07T03:16:04.675Z,40.2
2022-09-07T03:17:06.557Z,40.2
2022-09-07T03:18:08.105Z,40.2
2022-09-07T03:19:09.888Z,40.2
2022-09-07T03:20:11.556Z,40.2
2022-09-07T03:21:13.146Z,40.2
2022-09-07T03:22:14.740Z,40.2
2022-09-07T03:23:16.273Z,40.2
2022-09-07T03:24:17.851Z,40.2
2022-09-07T03:25:19.448Z,40.2
2022-09-07T03:26:21.119Z,40.2
2022-09-07T03:27:22.651Z,40.2
2022-09-07T03:28:24.263Z,40.2
2022-09-07T03:29:26.261Z,40.2
2022-09-07T03:30:27.907Z,40.2
2022-09-07T03:31:29.549Z,40.2
2022-09-07T03:32:31.082Z,40.2
2022-09-07T03:33:32.615Z,40.2
2022-09-07T03:34:34.150Z,40.2
2022-09-07T03:35:35.680Z,40.2
2022-09-07T03:36:37.468Z,40.2
2022-09-07T03:37:39.016Z,40.2
2022-09-07T03:38:40.625Z,39.8
2022-09-07T03:39:42.523Z,39.6
2022-09-07T03:40:44.564Z,39.5
2022-09-07T03:41:46.096Z,39.6
2022-09-07T03:42:47.709Z,39.8
2022-09-07T03:43:49.295Z,39.5
2022-09-07T03:44:51.088Z,39.7
2022-09-07T03:45:53.465Z,39.8
2022-09-07T03:46:55.292Z,39.7
2022-09-07T03:47:56.878Z,39.4
2022-09-07T03:48:58.541Z,39.6
2022-09-07T03:50:00.187Z,39.4
2022-09-07T03:51:01.863Z,39.2
2022-09-07T03:52:03.477Z,39.2
2022-09-07T03:53:05.095Z,38.9
2022-09-07T03:54:06.727Z,38.9
2022-09-07T03:55:08.336Z,39
2022-09-07T03:56:10.061Z,39.2
2022-09-07T03:57:11.669Z,39.2
2022-09-07T03:58:13.204Z,39.1
2022-09-07T03:59:14.813Z,38.9
2022-09-07T04:00:16.436Z,38.9
2022-09-07T04:01:18.221Z,38.9
2022-09-07T04:02:20.169Z,38.8
2022-09-07T04:03:22.092Z,38.8
2022-09-07T04:04:23.735Z,38.8
2022-09-07T04:05:25.226Z,38.7
2022-09-07T04:06:26.925Z,38.6
2022-09-07T04:07:28.433Z,38.7
2022-09-07T04:08:30.499Z,38.7
2022-09-07T04:09:32.719Z,38.5
2022-09-07T04:10:34.363Z,38.4
2022-09-07T04:11:36.169Z,38.5
2022-09-07T04:12:37.696Z,38.5
2022-09-07T04:13:39.240Z,38.5
2022-09-07T04:14:40.776Z,38.2
2022-09-07T04:15:42.307Z,38.4
2022-09-07T04:16:44.049Z,38.5
2022-09-07T04:17:45.982Z,38.6
2022-09-07T04:18:47.523Z,38.6
2022-09-07T04:19:49.334Z,38.6
2022-09-07T04:20:50.974Z,38.7
2022-09-07T04:21:52.521Z,38.6
2022-09-07T04:22:54.681Z,38.6
2022-09-07T04:23:56.213Z,38.6
2022-09-07T04:24:57.863Z,38.5
2022-09-07T04:25:59.511Z,38.4
2022-09-07T04:27:01.160Z,38.5
2022-09-07T04:28:02.746Z,38.5
2022-09-07T04:29:04.431Z,38.5
2022-09-07T04:30:05.975Z,38.4
2022-09-07T04:31:07.768Z,38.4
2022-09-07T04:32:16.108Z,38.3
2022-09-07T04:33:17.888Z,38.2
2022-09-07T04:34:19.539Z,38.3
2022-09-07T04:35:21.231Z,38.3
2022-09-07T04:36:23.028Z,38.3
2022-09-07T04:37:24.674Z,38.2
2022-09-07T04:38:26.395Z,38.1
2022-09-07T04:39:28.303Z,38.1
2022-09-07T04:40:30.163Z,38
2022-09-07T04:41:31.803Z,38
2022-09-07T04:42:33.376Z,37.9
2022-09-07T04:43:34.922Z,37.9
2022-09-07T04:44:36.463Z,37.9
2022-09-07T04:45:38.198Z,37.8
2022-09-07T04:46:40.037Z,37.8
2022-09-07T04:47:41.603Z,37.8
2022-09-07T04:48:43.144Z,37.8
2022-09-07T04:49:44.723Z,37.7
2022-09-07T04:50:46.256Z,37.7
2022-09-07T04:51:47.909Z,37.7
2022-09-07T04:52:49.562Z,37.7
2022-09-07T04:53:51.200Z,37.7
2022-09-07T04:54:52.728Z,37.8
2022-09-07T04:55:54.290Z,37.7
2022-09-07T04:56:55.898Z,37.7
2022-09-07T04:57:57.573Z,37.6
2022-09-07T04:58:59.220Z,37.6
2022-09-07T05:00:00.745Z,37.5
2022-09-07T05:01:02.643Z,37.4
2022-09-07T05:02:04.846Z,37.5
2022-09-07T05:03:06.828Z,37.4
2022-09-07T05:04:08.482Z,37.4
2022-09-07T05:05:10.086Z,37.4
2022-09-07T05:06:11.671Z,37.4
2022-09-07T05:07:13.310Z,37.4
2022-09-07T05:08:14.949Z,37.5
2022-09-07T05:09:16.527Z,37.6
2022-09-07T05:10:18.118Z,37.5
2022-09-07T05:11:20.215Z,37.4
2022-09-07T05:12:30.742Z,37.3
2022-09-07T05:13:32.393Z,37.4
2022-09-07T05:14:33.920Z,37.4
2022-09-07T05:15:35.455Z,37.2
2022-09-07T05:16:37.196Z,37.2
2022-09-07T05:17:39.280Z,37.1
2022-09-07T05:18:40.893Z,37.2
2022-09-07T05:19:42.438Z,37.2
2022-09-07T05:20:44.008Z,37.2
2022-09-07T05:21:45.624Z,37.2
2022-09-07T05:22:47.422Z,37.2
2022-09-07T05:23:49.032Z,37.1
2022-09-07T05:24:50.555Z,37
2022-09-07T05:25:52.101Z,37.2
2022-09-07T05:26:53.898Z,37.2
2022-09-07T05:27:55.546Z,37.1
2022-09-07T05:31:29.855Z,37
2022-09-07T05:32:31.601Z,37
2022-09-07T05:35:35.245Z,36.6
2022-09-07T05:36:36.777Z,36.6
2022-09-07T05:37:38.311Z,36.6
2022-09-07T05:38:39.936Z,36.5
2022-09-07T05:39:41.622Z,36.5
2022-09-07T05:40:43.416Z,36.7
2022-09-07T05:41:44.961Z,36.7
2022-09-07T05:42:46.654Z,36.6
2022-09-07T05:45:50.070Z,36.4
2022-09-07T05:46:52.016Z,36.3
2022-09-07T05:47:53.728Z,36.3
2022-09-07T05:48:55.330Z,36.2
2022-09-07T05:49:57.520Z,36.3
2022-09-07T05:50:59.064Z,36.3
2022-09-07T05:52:00.703Z,36.4
2022-09-07T05:53:02.352Z,36.4
2022-09-07T05:54:03.999Z,36.3
2022-09-07T05:55:30.178Z,36.3
2022-09-07T05:56:32.466Z,36.7
2022-09-07T05:57:34.123Z,36.5
2022-09-07T05:58:35.661Z,36.4
2022-09-07T05:59:37.195Z,36.6
2022-09-07T06:00:38.918Z,36.5
2022-09-07T06:01:43.404Z,36.4
2022-09-07T06:02:45.464Z,36.5
2022-09-07T06:03:47.541Z,36.5
2022-09-07T06:04:49.203Z,36.4
2022-09-07T06:05:50.979Z,36.4
2022-09-07T06:07:22.611Z,36.3
2022-09-07T06:08:27.875Z,36.2
2022-09-07T06:09:31.041Z,36.1
2022-09-07T06:10:48.040Z,36.1
2022-09-07T06:11:49.659Z,36.1
2022-09-07T06:12:51.331Z,36.1
2022-09-07T06:13:53.693Z,36.1
2022-09-07T06:14:55.433Z,36
2022-09-07T06:15:57.183Z,36.1
2022-09-07T06:16:58.988Z,36
2022-09-07T06:18:00.772Z,36
2022-09-07T06:19:02.326Z,36.1
2022-09-07T06:20:03.967Z,36.1
2022-09-07T06:21:05.509Z,36.4
2022-09-07T06:22:07.156Z,36.2
2022-09-07T06:23:08.769Z,36.2
2022-09-07T06:24:10.357Z,36.1
2022-09-07T06:25:11.988Z,36.3
2022-09-07T06:26:13.646Z,36.3
2022-09-07T06:27:15.181Z,36.2
2022-09-07T06:28:16.789Z,36.1
2022-09-07T06:29:18.317Z,36.1
2022-09-07T06:30:20.018Z,36.1
2022-09-07T06:31:25.042Z,36.1
2022-09-07T06:33:44.371Z,36
2022-09-07T06:34:45.941Z,36
2022-09-07T06:35:47.489Z,35.9
2022-09-07T06:36:49.114Z,35.9
2022-09-07T06:37:50.886Z,35.8
2022-09-07T06:38:52.432Z,35.8
2022-09-07T06:39:54.313Z,35.7
2022-09-07T06:41:59.189Z,35.7
2022-09-07T06:43:01.168Z,35.6
2022-09-07T06:44:02.865Z,35.6
2022-09-07T06:45:05.489Z,35.6
2022-09-07T06:48:08.822Z,35.6
2022-09-07T06:49:10.494Z,35.4
2022-09-07T06:50:12.171Z,35.4
2022-09-07T06:51:13.932Z,35.4
2022-09-07T06:52:15.598Z,35.4
2022-09-07T06:55:04.544Z,35.6
2022-09-07T06:56:06.327Z,35.5
2022-09-07T06:57:07.999Z,35.5
2022-09-07T06:58:09.554Z,35.3
2022-09-07T06:59:11.196Z,35.4
2022-09-07T07:00:12.769Z,35.4
2022-09-07T07:01:14.426Z,35.4
2022-09-07T07:02:16.206Z,35.4
2022-09-07T07:03:17.923Z,35.4
2022-09-07T07:04:19.738Z,35.4
2022-09-07T07:05:21.519Z,35.3
2022-09-07T07:06:23.205Z,35.4
2022-09-07T07:07:24.971Z,35.4
2022-09-07T07:08:26.669Z,35.4
2022-09-07T07:09:28.277Z,35.5
2022-09-07T07:10:30.126Z,35.4
2022-09-07T07:11:31.849Z,35.4
2022-09-07T07:13:37.989Z,35.4
2022-09-07T07:14:45.061Z,35.4
2022-09-07T07:15:46.963Z,35.5
2022-09-07T07:16:48.658Z,35.6
2022-09-07T07:18:09.404Z,35.5
2022-09-07T07:19:22.965Z,35.5
2022-09-07T07:20:24.757Z,35.4
2022-09-07T07:21:43.246Z,35.4
2022-09-07T07:23:46.384Z,35.2
2022-09-07T07:24:47.996Z,35.2
2022-09-07T07:25:49.773Z,35.2
2022-09-07T07:26:51.299Z,35.2
2022-09-07T07:27:53.102Z,35.2
2022-09-07T07:29:04.353Z,35.1
2022-09-07T07:30:06.463Z,35.1
2022-09-07T07:31:13.266Z,34.9
2022-09-07T07:32:15.048Z,35.1
2022-09-07T07:33:16.783Z,35.1
2022-09-07T07:34:18.733Z,35.1
2022-09-07T07:35:20.701Z,35
2022-09-07T07:36:22.417Z,35.2
2022-09-07T07:37:28.459Z,35.2
2022-09-07T07:39:00.822Z,35.2
2022-09-07T07:40:15.322Z,35.3
2022-09-07T07:41:57.733Z,35.4
2022-09-07T07:43:07.922Z,34.8
2022-09-07T07:44:09.603Z,34.8
2022-09-07T07:45:56.467Z,34.8
2022-09-07T07:47:00.176Z,34.7
2022-09-07T07:48:02.119Z,34.6
2022-09-07T07:49:03.758Z,34.6
2022-09-07T07:50:35.374Z,34.9
2022-09-07T07:54:44.083Z,35
2022-09-07T07:55:45.951Z,35
2022-09-07T07:56:47.579Z,35.1
2022-09-07T07:57:49.277Z,34.9
2022-09-07T07:58:50.900Z,34.7
2022-09-07T07:59:52.533Z,34.7
2022-09-07T08:00:56.563Z,34.7
2022-09-07T08:01:59.929Z,34.6
2022-09-07T08:03:02.222Z,34.5
2022-09-07T08:04:03.844Z,34.6
2022-09-07T08:05:05.404Z,34.7
2022-09-07T08:06:07.185Z,34.6
2022-09-07T08:07:11.417Z,34.6
2022-09-07T08:08:13.219Z,34.6
2022-09-07T08:09:14.863Z,34.5
2022-09-07T08:10:16.420Z,34.4
2022-09-07T08:11:18.153Z,34.4
2022-09-07T08:12:19.793Z,34.4
2022-09-07T08:13:21.868Z,34.5
2022-09-07T08:14:23.433Z,34.5
2022-09-07T08:15:25.061Z,34.6
2022-09-07T08:16:27.018Z,34.6
2022-09-07T08:17:28.939Z,34.6
2022-09-07T08:18:30.499Z,34.7
2022-09-07T08:19:32.223Z,34.9
2022-09-07T08:20:33.753Z,34.7
2022-09-07T08:21:35.432Z,34.8
2022-09-07T08:22:37.181Z,34.7
2022-09-07T08:23:38.805Z,34.8
2022-09-07T08:24:40.629Z,34.5
2022-09-07T08:25:42.290Z,34.8
2022-09-07T08:26:43.888Z,34.5
2022-09-07T08:27:45.591Z,34.5
2022-09-07T08:28:47.733Z,34.5
2022-09-07T08:29:49.430Z,34.6
2022-09-07T08:30:51.374Z,34.8
2022-09-07T08:31:53.139Z,34.7
2022-09-07T08:32:54.985Z,34.5
2022-09-07T08:33:56.592Z,34.4
2022-09-07T08:34:58.135Z,34.5
2022-09-07T08:35:59.680Z,34.6
2022-09-07T08:37:01.379Z,34.5
2022-09-07T08:38:03.119Z,34.5
2022-09-07T08:39:04.671Z,34.5
2022-09-07T08:40:06.481Z,34.5
2022-09-07T08:41:08.363Z,34.5
2022-09-07T08:42:10.076Z,34.8
2022-09-07T08:43:11.711Z,34.5
2022-09-07T08:44:13.296Z,34.8
2022-09-07T08:45:14.851Z,34.5
2022-09-07T08:46:16.676Z,34.6
2022-09-07T08:47:18.540Z,34.6
2022-09-07T08:48:20.145Z,34.5
2022-09-07T08:49:21.713Z,34.4
2022-09-07T08:50:23.434Z,34.6
2022-09-07T08:51:25.064Z,34.8
2022-09-07T08:52:26.752Z,34.8
2022-09-07T08:53:28.783Z,34.9
2022-09-07T08:54:30.578Z,34.8
2022-09-07T08:55:32.365Z,34.7
2022-09-07T08:56:34.315Z,34.5
2022-09-07T08:57:35.963Z,34.5
2022-09-07T08:58:51.844Z,34.5
2022-09-07T08:59:53.389Z,34.5
2022-09-07T09:01:31.589Z,34.5
2022-09-07T09:02:44.180Z,34.4
2022-09-07T09:04:31.767Z,34.2
2022-09-07T09:06:17.241Z,34.2
2022-09-07T09:07:19.801Z,34.2
2022-09-07T09:08:21.425Z,34.2
2022-09-07T09:09:23.259Z,34.3
2022-09-07T09:10:24.810Z,34.3
2022-09-07T09:11:26.543Z,34.2
2022-09-07T09:12:28.670Z,34.5
2022-09-07T09:13:30.955Z,34.5
2022-09-07T09:14:33.120Z,34.5
2022-09-07T09:15:34.997Z,34.5
2022-09-07T09:16:38.217Z,34.6
2022-09-07T09:17:40.825Z,34.6
2022-09-07T09:18:42.515Z,34.6
2022-09-07T09:19:44.051Z,34.7
2022-09-07T09:20:45.695Z,34.8
2022-09-07T09:21:47.490Z,34.7
2022-09-07T09:22:49.039Z,34.8
2022-09-07T09:23:50.633Z,34.8
2022-09-07T09:24:52.296Z,34.9
2022-09-07T09:25:53.912Z,34.8
2022-09-07T09:26:55.624Z,34.9
2022-09-07T09:27:57.272Z,35
2022-09-07T09:28:58.907Z,35
2022-09-07T09:30:00.440Z,35.1
2022-09-07T09:31:02.249Z,35.2
2022-09-07T09:32:04.253Z,35.3
2022-09-07T09:33:05.813Z,35.3
2022-09-07T09:34:07.351Z,35.2
2022-09-07T09:35:08.889Z,35.2
2022-09-07T09:36:10.416Z,35.3
2022-09-07T09:37:12.275Z,35.4
2022-09-07T09:38:13.862Z,35.3
2022-09-07T09:39:15.484Z,35.2
2022-09-07T09:40:17.497Z,35.2
2022-09-07T09:41:19.710Z,35.2
2022-09-07T09:42:21.323Z,35.3
2022-09-07T09:43:22.891Z,35.4
2022-09-07T09:44:24.612Z,35.5
2022-09-07T09:45:26.257Z,35.5
2022-09-07T09:46:28.100Z,35.4
2022-09-07T09:47:31.489Z,35.4
2022-09-07T09:48:34.308Z,35.5
2022-09-07T09:49:35.896Z,35.5
2022-09-07T09:53:42.060Z,35.4
2022-09-07T09:54:43.747Z,35.4
2022-09-07T09:55:45.471Z,35.4
2022-09-07T09:56:47.011Z,35.5
2022-09-07T09:59:05.642Z,35.6
2022-09-07T10:01:35.366Z,35.3
2022-09-07T10:04:53.759Z,35.3
2022-09-07T10:05:55.292Z,35.4
2022-09-07T10:06:56.794Z,35.3
2022-09-07T10:07:58.329Z,34.4
2022-09-07T10:09:00.005Z,34.1
2022-09-07T10:10:02.081Z,34.1
2022-09-07T10:11:03.917Z,34.7
2022-09-07T10:12:07.949Z,35.1
2022-09-07T10:13:10.622Z,35.4
2022-09-07T10:14:12.208Z,35.2
2022-09-07T10:15:13.936Z,35.3
2022-09-07T10:16:15.828Z,35.1
2022-09-07T10:17:17.707Z,35.2
2022-09-07T10:18:19.255Z,35.2
2022-09-07T10:19:20.936Z,35
2022-09-07T10:20:22.445Z,35
2022-09-07T10:21:24.146Z,34.9
2022-09-07T10:22:25.787Z,34.9
2022-09-07T10:23:27.434Z,34.9
2022-09-07T10:24:29.160Z,34.6
2022-09-07T10:25:31.091Z,34.7
2022-09-07T10:26:32.821Z,35.1
2022-09-07T10:27:34.366Z,35.1
2022-09-07T10:29:06.769Z,35.1
2022-09-07T10:30:09.867Z,35
2022-09-07T10:31:15.803Z,34.8
2022-09-07T10:32:17.869Z,34.8
2022-09-07T10:33:19.477Z,34.7
2022-09-07T10:34:28.458Z,34.9
2022-09-07T10:35:30.080Z,34.8
2022-09-07T10:36:31.726Z,34.9
2022-09-07T10:37:33.264Z,34.7
2022-09-07T10:38:35.012Z,34.7
2022-09-07T10:39:36.988Z,34.7
2022-09-07T10:40:38.942Z,34.7
2022-09-07T10:41:40.703Z,34.6
2022-09-07T10:43:21.770Z,34.6
2022-09-07T10:44:24.648Z,34.6
2022-09-07T10:45:26.316Z,34.6
2022-09-07T10:46:58.402Z,34.7
2022-09-07T10:48:00.675Z,34.7
2022-09-07T10:49:02.208Z,34.7
2022-09-07T10:50:35.984Z,34.7
2022-09-07T10:51:37.768Z,34.6
2022-09-07T10:52:39.386Z,34.6
2022-09-07T10:54:30.659Z,34.6
2022-09-07T10:55:33.383Z,34.5
2022-09-07T10:56:35.233Z,34.5
2022-09-07T10:57:37.435Z,34.4
2022-09-07T10:59:08.848Z,34.5
2022-09-07T11:00:11.211Z,34.5
2022-09-07T11:01:13.589Z,34.4
2022-09-07T11:02:15.591Z,34.4
2022-09-07T11:03:33.007Z,34.5
2022-09-07T11:04:34.923Z,34.5
2022-09-07T11:05:38.678Z,34.4
2022-09-07T11:06:40.425Z,34.6
2022-09-07T11:07:42.070Z,34.5
2022-09-07T11:09:17.799Z,34.6
2022-09-07T11:10:21.830Z,34.6
2022-09-07T11:12:01.929Z,34.6
2022-09-07T11:13:06.168Z,34.5
2022-09-07T11:14:13.910Z,34.4
2022-09-07T11:15:15.604Z,34.4
2022-09-07T11:16:50.944Z,34.4
2022-09-07T11:17:53.742Z,34
2022-09-07T11:19:36.350Z,34
2022-09-07T11:20:39.812Z,33.9
2022-09-07T11:21:57.222Z,33.8
2022-09-07T11:22:59.120Z,33.9
2022-09-07T11:24:00.781Z,34.4
2022-09-07T11:25:32.376Z,34.4
2022-09-07T11:26:34.318Z,34.4
2022-09-07T11:27:35.875Z,34.5
2022-09-07T11:28:38.021Z,34.5
2022-09-07T11:29:39.557Z,34.5
2022-09-07T11:30:41.332Z,34.5
2022-09-07T11:31:43.137Z,34.6
2022-09-07T11:32:44.750Z,34.5
2022-09-07T11:34:24.496Z,34.5
2022-09-07T11:35:26.948Z,34.3
2022-09-07T11:36:28.654Z,34.4
2022-09-07T11:37:30.446Z,34.2
2022-09-07T11:38:32.597Z,34.3
2022-09-07T11:39:34.961Z,34.4
2022-09-07T11:40:37.117Z,34.2
2022-09-07T11:41:38.929Z,34.3
2022-09-07T11:42:44.511Z,34.3
2022-09-07T11:43:46.385Z,33.7
2022-09-07T11:44:47.929Z,33.8
2022-09-07T11:45:49.734Z,34
2022-09-07T11:46:51.766Z,34.2
2022-09-07T11:47:53.380Z,34.2
2022-09-07T11:48:55.261Z,33.9
2022-09-07T11:49:59.732Z,34
2022-09-07T11:51:01.692Z,34
2022-09-07T11:52:06.789Z,34.1
2022-09-07T11:53:08.517Z,34
2022-09-07T11:54:10.156Z,33.9
2022-09-07T11:55:11.789Z,33.9
2022-09-07T11:56:13.408Z,33.5
2022-09-07T11:57:15.082Z,33.5
2022-09-07T11:58:16.745Z,33.4
2022-09-07T11:59:18.569Z,33.7
2022-09-07T12:00:20.078Z,33.4
2022-09-07T12:01:21.763Z,33.5
2022-09-07T12:02:59.230Z,33.1
2022-09-07T12:04:03.204Z,33.5
2022-09-07T12:05:05.613Z,33
2022-09-07T12:06:07.313Z,32.9
2022-09-07T12:07:08.913Z,32.9
2022-09-07T12:08:10.442Z,32.9
2022-09-07T12:09:12.088Z,33.1
2022-09-07T12:10:13.696Z,33.1
2022-09-07T12:11:19.063Z,33.3
2022-09-07T12:12:25.040Z,33.4
2022-09-07T12:13:26.856Z,33.5
2022-09-07T12:14:28.805Z,33.4
2022-09-07T12:15:30.636Z,33.4
2022-09-07T12:16:32.442Z,33.5
2022-09-07T12:17:33.997Z,33.5
2022-09-07T12:18:35.798Z,33.5
2022-09-07T12:19:37.443Z,33.7
2022-09-07T12:20:39.090Z,33.6
2022-09-07T12:21:40.836Z,33.6
2022-09-07T12:22:42.587Z,33.6
2022-09-07T12:23:44.287Z,33.6
2022-09-07T12:24:45.828Z,33.6
2022-09-07T12:25:47.542Z,33.6
2022-09-07T12:26:49.277Z,33.6
2022-09-07T12:27:50.807Z,33.6
2022-09-07T12:28:52.477Z,33.7
2022-09-07T12:29:54.718Z,33.7
2022-09-07T12:30:56.647Z,33.7
2022-09-07T12:32:53.038Z,33.7
2022-09-07T12:33:58.952Z,33.7
2022-09-07T12:35:00.589Z,33.6
2022-09-07T12:36:02.442Z,33.3
2022-09-07T12:37:06.795Z,33.1
2022-09-07T12:38:14.061Z,33.1
2022-09-07T12:39:15.598Z,33.3
2022-09-07T12:40:17.344Z,33.5
2022-09-07T12:41:19.468Z,33.4
2022-09-07T12:42:37.867Z,33.4
2022-09-07T12:43:39.540Z,33.3
2022-09-07T12:44:41.290Z,33.4
2022-09-07T12:45:43.253Z,33.1
2022-09-07T12:46:46.998Z,33
2022-09-07T12:47:49.518Z,33.2
2022-09-07T12:48:51.268Z,33.3
2022-09-07T12:49:52.875Z,33.3
2022-09-07T12:50:54.554Z,33.3
2022-09-07T12:52:08.976Z,33.3
2022-09-07T12:53:17.808Z,32.9
2022-09-07T12:54:19.454Z,32.6
2022-09-07T12:55:29.760Z,32.9
2022-09-07T12:56:32.676Z,32.7
2022-09-07T12:57:34.368Z,32.6
2022-09-07T12:58:36.177Z,32.7
2022-09-07T12:59:37.831Z,32.8
2022-09-07T13:00:40.761Z,32.9
2022-09-07T13:01:42.885Z,32.8
2022-09-07T13:02:45.842Z,32.9
2022-09-07T13:03:52.353Z,32.9
2022-09-07T13:04:54.367Z,32.7
2022-09-07T13:05:55.915Z,32.9
2022-09-07T13:07:04.999Z,32.9
2022-09-07T13:08:09.585Z,32.9
2022-09-07T13:09:11.299Z,33
2022-09-07T13:10:13.006Z,33.1
2022-09-07T13:11:14.714Z,33
2022-09-07T13:12:53.596Z,33
2022-09-07T13:14:08.654Z,33
2022-09-07T13:15:24.095Z,33
2022-09-07T13:16:26.241Z,32.8
2022-09-07T13:17:28.853Z,32.7
2022-09-07T13:18:30.471Z,32.7
2022-09-07T13:19:32.524Z,32.9
2022-09-07T13:20:41.540Z,33
2022-09-07T13:21:43.497Z,33
2022-09-07T13:22:45.774Z,33
2022-09-07T13:23:47.377Z,32.9
2022-09-07T13:24:49.099Z,32.9
2022-09-07T13:25:51.101Z,33
2022-09-07T13:26:52.745Z,33.1
2022-09-07T13:27:54.596Z,33
2022-09-07T13:28:56.353Z,33.1
2022-09-07T13:29:58.093Z,33.1
2022-09-07T13:30:59.940Z,33.1
2022-09-07T13:32:02.029Z,33.1
2022-09-07T13:33:11.222Z,33
2022-09-07T13:34:12.903Z,33.2
2022-09-07T13:35:14.441Z,33.1
2022-09-07T13:36:16.218Z,33
2022-09-07T13:37:17.760Z,33.1
2022-09-07T13:38:19.522Z,33.1
2022-09-07T13:39:21.378Z,33
2022-09-07T13:40:22.925Z,33.1
2022-09-07T13:41:24.462Z,33.1
2022-09-07T13:42:26.176Z,33
2022-09-07T13:43:27.992Z,32.8
2022-09-07T13:44:29.767Z,33
2022-09-07T13:45:31.309Z,32.9
2022-09-07T13:46:32.963Z,32.9
2022-09-07T13:47:34.994Z,32.9
2022-09-07T13:48:36.895Z,33
2022-09-07T13:49:38.441Z,33
2022-09-07T13:50:40.156Z,33
2022-09-07T13:51:41.765Z,33
2022-09-07T13:52:43.388Z,33
2022-09-07T13:53:45.046Z,33
2022-09-07T13:54:46.669Z,33.2
2022-09-07T13:55:48.339Z,33.2
2022-09-07T13:56:49.869Z,33.2
2022-09-07T13:57:51.562Z,33.3
2022-09-07T13:58:53.170Z,33.3
2022-09-07T13:59:54.818Z,33.3
2022-09-07T14:00:56.734Z,33.3
2022-09-07T14:01:58.876Z,33.2
2022-09-07T14:03:01.208Z,33.2
2022-09-07T14:04:03.138Z,33.2
2022-09-07T14:05:04.675Z,33.2
2022-09-07T14:06:06.324Z,33.1
2022-09-07T14:07:08.076Z,32.8
2022-09-07T14:08:09.660Z,32.9
2022-09-07T14:09:11.301Z,32.8
2022-09-07T14:10:13.006Z,33
2022-09-07T14:11:14.553Z,33.3
2022-09-07T14:12:16.180Z,33.3
2022-09-07T14:13:17.721Z,33.3
2022-09-07T14:14:19.265Z,33.1
2022-09-07T14:15:20.811Z,33.2
2022-09-07T14:16:22.601Z,32.3
2022-09-07T14:17:24.459Z,32.5
2022-09-07T14:18:26.017Z,32.6
2022-09-07T14:19:27.813Z,32.6
2022-09-07T14:20:29.346Z,32.7
2022-09-07T14:21:30.888Z,32.7
2022-09-07T14:22:32.550Z,32.6
2022-09-07T14:23:34.413Z,32.8
2022-09-07T14:24:36.228Z,32.6
2022-09-07T14:26:15.810Z,32.7
2022-09-07T14:27:20.191Z,32.6
2022-09-07T14:28:21.834Z,32.4
2022-09-07T14:29:23.501Z,32.6
2022-09-07T14:30:25.311Z,32.3
2022-09-07T14:31:27.284Z,32.4
2022-09-07T14:32:28.866Z,32.3